Time;durP1;ratioP1;P1;durP2;ratioP2;P2;SDS_P1;SDS_P2;PMS_P1;PMS_P2;Temp;Humidity;BMP_temperature;BMP_pressure;BME280_temperature;BME280_humidity;BME280_pressure;Samples;Min_cycle;Max_cycle;Signal;HPM_P1;HPM_P2
2022/12/22 03:26:15;;;;;;;764.63;684.63;;;8.60;99.90;;;;;;5061724;28;20454;-81
2022/12/22 03:28:42;;;;;;;781.20;700.83;;;8.60;99.90;;;;;;5062065;28;20443;-82
2022/12/22 03:31:08;;;;;;;774.40;693.40;;;8.60;99.90;;;;;;5061571;28;20447;-83
2022/12/22 03:33:36;;;;;;;785.87;706.00;;;8.60;99.90;;;;;;5061928;28;20475;-82
2022/12/22 03:36:05;;;;;;;774.93;695.33;;;8.50;99.90;;;;;;5061638;28;20455;-82
2022/12/22 03:38:31;;;;;;;774.87;694.97;;;8.60;99.90;;;;;;5061516;28;20467;-82
2022/12/22 03:40:58;;;;;;;763.53;684.77;;;8.60;99.90;;;;;;5060863;28;20457;-82
2022/12/22 03:49:11;;;;;;;741.33;664.00;;;8.60;99.90;;;;;;5060848;28;20431;-82
2022/12/22 03:51:40;;;;;;;752.03;674.57;;;8.50;99.90;;;;;;5060143;28;20447;-82
2022/12/22 03:54:07;;;;;;;741.07;663.43;;;8.50;99.90;;;;;;5057773;28;20467;-82
2022/12/22 03:56:34;;;;;;;738.17;659.90;;;8.40;99.90;;;;;;5056702;28;20837;-82
2022/12/22 03:59:00;;;;;;;751.73;674.47;;;8.40;99.90;;;;;;5057147;28;20479;-82
2022/12/22 04:01:27;;;;;;;742.37;666.50;;;8.40;99.90;;;;;;5057965;28;20451;-82
2022/12/22 04:03:54;;;;;;;735.33;658.33;;;8.40;99.90;;;;;;5058062;28;20480;-81
2022/12/22 04:06:22;;;;;;;735.30;658.67;;;8.50;99.90;;;;;;5058989;28;20452;-81
2022/12/22 04:08:49;;;;;;;741.80;664.70;;;8.50;99.90;;;;;;5058981;28;20439;-81
2022/12/22 04:14:02;;;;;;;729.57;652.10;;;8.50;99.90;;;;;;5057619;28;20536;-81
2022/12/22 04:16:29;;;;;;;727.20;649.90;;;8.60;99.90;;;;;;5060065;28;20459;-81
2022/12/22 04:18:57;;;;;;;727.43;649.90;;;8.60;99.90;;;;;;5060155;28;20483;-82
2022/12/22 04:21:25;;;;;;;730.30;652.97;;;8.60;99.90;;;;;;5059252;28;20452;-82
2022/12/22 04:23:52;;;;;;;750.13;672.53;;;8.60;99.90;;;;;;5059045;28;20471;-82
2022/12/22 04:26:19;;;;;;;789.97;711.10;;;8.70;99.90;;;;;;5053911;28;20471;-82
2022/12/22 04:28:46;;;;;;;774.80;696.10;;;8.70;99.90;;;;;;5039809;28;20910;-81
2022/12/22 04:31:13;;;;;;;765.97;686.83;;;8.70;99.90;;;;;;5039058;28;20456;-82
2022/12/22 04:33:40;;;;;;;771.53;692.73;;;8.80;99.90;;;;;;5038838;28;20479;-82
2022/12/22 04:36:09;;;;;;;752.03;673.63;;;8.70;99.90;;;;;;5037818;28;20456;-83
2022/12/22 04:38:37;;;;;;;742.67;664.17;;;8.80;99.90;;;;;;5036692;28;20473;-82
2022/12/22 04:41:05;;;;;;;730.77;653.13;;;8.80;99.90;;;;;;5036642;28;20453;-80
2022/12/22 04:43:32;;;;;;;734.53;656.10;;;8.80;99.90;;;;;;5035872;28;20477;-82
2022/12/22 04:45:58;;;;;;;751.97;674.57;;;8.70;99.90;;;;;;5036205;28;20448;-82
2022/12/22 04:48:26;;;;;;;738.73;661.97;;;8.70;99.90;;;;;;5035536;28;20452;-82
2022/12/22 04:50:55;;;;;;;727.10;649.87;;;8.70;99.90;;;;;;5050989;28;20462;-82
2022/12/22 04:53:23;;;;;;;728.77;650.97;;;8.70;99.90;;;;;;5033779;28;20471;-83
2022/12/22 04:55:56;;;;;;;728.53;650.20;;;8.70;99.90;;;;;;5033608;28;20452;-82
2022/12/22 04:58:23;;;;;;;728.23;650.60;;;8.70;99.90;;;;;;5034211;28;20484;-82
2022/12/22 05:00:50;;;;;;;725.13;647.60;;;8.70;99.90;;;;;;5033933;28;20459;-82
2022/12/22 05:03:17;;;;;;;724.47;647.07;;;8.70;99.90;;;;;;5034048;28;20864;-82
2022/12/22 05:05:43;;;;;;;731.33;654.40;;;8.70;99.90;;;;;;5034186;28;20464;-82
2022/12/22 05:08:10;;;;;;;729.53;651.83;;;8.80;99.90;;;;;;5033567;28;20842;-84
2022/12/22 05:10:37;;;;;;;732.67;654.67;;;8.90;99.90;;;;;;5033690;28;20450;-82
2022/12/22 05:13:05;;;;;;;742.03;662.60;;;8.80;99.90;;;;;;5033572;28;20476;-83
2022/12/22 05:15:34;;;;;;;729.47;652.23;;;8.90;99.90;;;;;;5033546;28;20458;-83
2022/12/22 05:18:02;;;;;;;743.10;666.77;;;8.80;99.90;;;;;;5033485;28;20484;-82
2022/12/22 05:20:29;;;;;;;730.53;653.53;;;8.80;99.90;;;;;;5033825;28;20902;-81
2022/12/22 05:22:58;;;;;;;727.47;652.20;;;8.80;99.90;;;;;;5035431;28;20477;-82
2022/12/22 05:25:25;;;;;;;733.83;656.80;;;8.70;99.90;;;;;;5052915;28;20454;-82
2022/12/22 05:27:52;;;;;;;734.60;657.90;;;8.80;99.90;;;;;;5053534;28;20471;-81
2022/12/22 05:30:20;;;;;;;736.70;659.80;;;8.80;99.90;;;;;;5053073;28;20952;-83
2022/12/22 05:32:47;;;;;;;764.93;687.23;;;8.80;99.90;;;;;;5053191;28;20808;-82
2022/12/22 05:35:15;;;;;;;759.80;683.33;;;8.80;99.90;;;;;;5053639;28;20483;-82
2022/12/22 05:37:42;;;;;;;753.97;677.13;;;8.80;99.90;;;;;;5054018;28;20462;-82
2022/12/22 05:40:10;;;;;;;746.27;670.83;;;8.90;99.90;;;;;;5053719;28;20968;-82
2022/12/22 05:42:38;;;;;;;744.30;669.10;;;8.80;99.90;;;;;;5053570;28;20483;-82
2022/12/22 05:45:07;;;;;;;745.33;670.57;;;8.90;99.90;;;;;;5053110;28;20451;-81
2022/12/22 05:47:35;;;;;;;748.07;673.90;;;9.00;99.90;;;;;;5053129;28;20451;-82
2022/12/22 05:50:02;;;;;;;744.77;669.57;;;9.10;99.90;;;;;;5053169;28;20451;-82
2022/12/22 05:52:29;;;;;;;743.47;667.07;;;9.10;99.90;;;;;;5052839;28;20450;-82
2022/12/22 05:54:56;;;;;;;752.17;673.17;;;9.10;99.90;;;;;;5054023;28;20925;-84
2022/12/22 05:57:23;;;;;;;747.60;668.50;;;9.10;99.90;;;;;;5053074;28;20459;-83
2022/12/22 05:59:50;;;;;;;757.23;678.83;;;9.10;99.90;;;;;;5052461;28;20940;-83
2022/12/22 06:02:16;;;;;;;745.50;665.20;;;9.10;99.90;;;;;;5052505;28;20836;-83
2022/12/22 06:04:44;;;;;;;797.87;668.97;;;9.00;99.90;;;;;;5052858;28;20457;-83
2022/12/22 06:07:11;;;;;;;871.13;696.00;;;9.00;99.90;;;;;;5052411;28;20447;-83
2022/12/22 06:09:38;;;;;;;775.83;680.10;;;9.10;99.90;;;;;;5052978;28;20447;-83
2022/12/22 06:12:06;;;;;;;839.10;708.43;;;9.00;99.90;;;;;;5052456;28;20474;-82
2022/12/22 06:14:33;;;;;;;794.23;699.27;;;9.00;99.90;;;;;;5052239;28;20510;-83
2022/12/22 06:16:59;;;;;;;779.67;689.43;;;9.00;99.90;;;;;;5053038;28;20451;-84
2022/12/22 06:19:26;;;;;;;778.90;682.67;;;8.90;99.90;;;;;;5040447;28;20480;-83
2022/12/22 06:21:54;;;;;;;740.57;662.53;;;8.90;99.90;;;;;;5033630;28;20455;-83
2022/12/22 06:24:55;;;;;;;;;;;;;;;;;;;;;
2022/12/22 06:27:54;;;;;;;716.20;643.50;;;8.80;99.90;;;;;;4955508;28;20960;-82
2022/12/22 06:30:20;;;;;;;709.47;636.47;;;8.80;99.90;;;;;;4965892;28;20455;-83
2022/12/22 06:32:49;;;;;;;699.93;627.13;;;8.90;99.90;;;;;;4974029;28;20484;-83
2022/12/22 06:36:05;;;;;;;723.63;648.57;;;8.90;99.90;;;;;;4979092;28;20459;-83
2022/12/22 06:39:13;;;;;;;727.90;653.20;;;8.80;99.90;;;;;;5051303;28;20482;-83
2022/12/22 06:45:01;;;;;;;730.93;657.57;;;8.90;99.90;;;;;;5030598;28;20461;-83
2022/12/22 06:47:28;;;;;;;753.23;672.40;;;8.80;99.90;;;;;;5054472;28;20462;-82
2022/12/22 06:50:47;;;;;;;749.07;668.97;;;8.80;99.90;;;;;;5057360;28;20470;-84
2022/12/22 06:53:23;;;;;;;781.17;663.73;;;8.80;99.90;;;;;;5043342;28;20475;-83
2022/12/22 06:58:47;;;;;;;741.10;657.13;;;8.60;99.90;;;;;;5048483;28;20435;-82
2022/12/22 07:01:14;;;;;;;722.30;641.83;;;8.60;99.90;;;;;;5055887;28;20459;-83
2022/12/22 07:03:40;;;;;;;733.03;653.53;;;8.60;99.90;;;;;;5055652;28;20996;-82
2022/12/22 07:06:13;;;;;;;735.87;656.30;;;8.50;99.90;;;;;;5056081;28;20451;-82
2022/12/22 07:08:40;;;;;;;740.77;660.20;;;8.50;99.90;;;;;;5055961;28;20944;-82
2022/12/22 07:11:08;;;;;;;747.27;666.47;;;8.40;99.90;;;;;;5056279;28;20455;-82
2022/12/22 07:20:07;;;;;;;743.47;663.40;;;8.20;99.90;;;;;;5039047;28;20467;-82
2022/12/22 07:22:34;;;;;;;725.07;651.87;;;8.30;99.90;;;;;;5054796;28;20851;-82
2022/12/22 07:25:01;;;;;;;723.80;652.30;;;8.40;99.90;;;;;;5057141;28;20451;-82
2022/12/22 07:27:47;;;;;;;730.70;658.50;;;8.50;99.90;;;;;;5057129;28;20456;-83
2022/12/22 07:30:14;;;;;;;725.23;653.27;;;8.60;99.90;;;;;;5056097;28;20455;-83
2022/12/22 07:32:41;;;;;;;723.03;651.87;;;8.80;99.90;;;;;;5056570;28;20471;-83
2022/12/22 07:35:09;;;;;;;732.43;660.80;;;9.20;99.90;;;;;;5056696;28;20975;-82
2022/12/22 07:37:36;;;;;;;744.83;673.17;;;9.50;99.90;;;;;;5057899;28;20462;-82
2022/12/22 07:40:14;;;;;;;744.87;672.97;;;9.70;99.90;;;;;;5058230;28;20483;-80
2022/12/22 07:43:14;;;;;;;766.53;693.10;;;9.90;99.90;;;;;;5057892;28;20517;-81
2022/12/22 07:45:42;;;;;;;746.80;673.00;;;9.90;99.90;;;;;;5054720;28;20956;-80
2022/12/22 07:51:48;;;;;;;;;;;;;;;;;;;;;
2022/12/22 07:54:24;;;;;;;774.67;699.50;;;10.00;99.90;;;;;;5047635;28;20498;-81
2022/12/22 07:56:51;;;;;;;794.47;717.37;;;9.80;99.90;;;;;;5059038;28;20434;-82
2022/12/22 07:59:20;;;;;;;781.03;705.63;;;9.80;99.90;;;;;;5058854;28;20483;-82
2022/12/22 08:01:48;;;;;;;797.90;722.27;;;9.80;99.90;;;;;;5057914;28;20457;-82
2022/12/22 08:04:15;;;;;;;790.57;714.33;;;9.80;99.90;;;;;;5058195;28;20479;-81
2022/12/22 08:06:42;;;;;;;803.73;726.30;;;9.80;99.90;;;;;;5059382;28;20826;-81
2022/12/22 08:09:10;;;;;;;790.67;712.07;;;9.70;99.90;;;;;;5058418;28;20459;-84
2022/12/22 08:11:36;;;;;;;781.67;704.53;;;9.70;99.90;;;;;;5057774;28;20966;-82
2022/12/22 08:14:03;;;;;;;773.00;698.33;;;9.50;99.90;;;;;;5057993;28;20471;-82
2022/12/22 08:16:30;;;;;;;794.70;718.07;;;9.50;99.90;;;;;;5057285;28;20825;-82
2022/12/22 08:18:58;;;;;;;791.40;714.60;;;9.40;99.90;;;;;;5057588;28;20513;-81
2022/12/22 08:21:25;;;;;;;797.20;722.10;;;9.40;99.90;;;;;;5039677;28;20456;-81
2022/12/22 08:23:52;;;;;;;785.97;712.17;;;9.50;99.90;;;;;;5036637;28;20483;-81
2022/12/22 08:26:24;;;;;;;791.93;715.83;;;9.50;99.90;;;;;;5038443;28;20453;-81
2022/12/22 08:28:56;;;;;;;779.93;704.40;;;9.50;99.90;;;;;;5037809;28;20448;-82
2022/12/22 08:31:27;;;;;;;769.57;693.10;;;9.50;99.90;;;;;;5037623;28;20452;-82
2022/12/22 08:33:54;;;;;;;773.10;697.80;;;9.60;99.90;;;;;;5037502;28;20476;-82
2022/12/22 08:36:22;;;;;;;775.60;700.13;;;9.60;99.90;;;;;;5037905;28;20826;-82
2022/12/22 08:38:49;;;;;;;773.07;696.50;;;9.60;99.90;;;;;;5037245;28;20834;-82
2022/12/22 08:41:48;;;;;;;765.93;690.23;;;9.50;99.90;;;;;;5037652;28;20460;-82
2022/12/22 08:44:04;;;;;;;779.33;701.30;;;9.60;99.90;;;;;;5037959;28;21032;-82
2022/12/22 08:46:31;;;;;;;782.30;705.30;;;9.60;99.90;;;;;;5036761;28;20787;-83
2022/12/22 08:48:58;;;;;;;786.13;708.10;;;9.60;99.90;;;;;;5036953;28;20452;-81
2022/12/22 08:51:26;;;;;;;792.03;713.53;;;9.60;99.90;;;;;;5037015;28;20460;-82
2022/12/22 08:53:52;;;;;;;788.03;709.73;;;9.50;99.90;;;;;;5035364;28;20980;-82
2022/12/22 08:56:33;;;;;;;796.03;717.23;;;9.60;99.90;;;;;;5034999;28;20459;-82
2022/12/22 08:59:03;;;;;;;789.67;710.80;;;9.60;99.90;;;;;;5035674;28;20464;-81
2022/12/22 09:01:31;;;;;;;781.47;702.67;;;9.70;99.90;;;;;;5034052;28;20491;-82
2022/12/22 09:03:58;;;;;;;780.57;702.03;;;9.60;99.90;;;;;;5035466;28;20499;-85
2022/12/22 09:06:27;;;;;;;785.30;707.47;;;9.60;99.90;;;;;;5034283;28;20459;-83
2022/12/22 09:08:55;;;;;;;782.47;705.40;;;9.70;99.90;;;;;;5035054;28;20471;-83
2022/12/22 09:11:22;;;;;;;779.57;701.97;;;9.70;99.90;;;;;;5033938;28;20452;-83
2022/12/22 09:13:50;;;;;;;778.70;699.93;;;9.60;99.90;;;;;;5034028;28;20472;-83
2022/12/22 09:16:17;;;;;;;791.47;713.27;;;9.70;99.90;;;;;;5034381;28;20459;-82
2022/12/22 09:18:44;;;;;;;785.73;707.93;;;9.70;99.90;;;;;;5032747;28;20604;-82
2022/12/22 09:21:11;;;;;;;780.50;702.70;;;9.80;99.90;;;;;;5034450;28;20465;-81
2022/12/22 09:23:39;;;;;;;791.43;713.17;;;9.80;99.90;;;;;;5035016;28;20476;-82
2022/12/22 09:26:08;;;;;;;779.73;702.30;;;9.80;99.90;;;;;;5035758;28;20463;-82
2022/12/22 09:28:35;;;;;;;792.17;716.97;;;9.80;99.90;;;;;;5037300;28;20854;-82
2022/12/22 09:31:03;;;;;;;773.20;699.20;;;9.80;99.90;;;;;;5038850;28;20452;-81
2022/12/22 09:33:29;;;;;;;781.53;707.00;;;9.80;99.90;;;;;;5039022;28;20502;-81
2022/12/22 09:35:56;;;;;;;776.77;704.37;;;9.90;99.90;;;;;;5039489;28;20455;-82
2022/12/22 09:38:26;;;;;;;772.10;700.30;;;9.90;99.90;;;;;;5039942;28;20469;-83
2022/12/22 09:40:55;;;;;;;779.07;707.67;;;9.80;99.90;;;;;;5039349;28;20480;-82
2022/12/22 09:43:28;;;;;;;782.47;710.27;;;9.90;99.90;;;;;;5039073;28;20476;-82
2022/12/22 09:45:56;;;;;;;772.30;699.27;;;9.90;99.90;;;;;;5038260;28;20448;-82
2022/12/22 09:48:23;;;;;;;789.27;715.47;;;9.90;99.90;;;;;;5038861;28;20448;-82
2022/12/22 09:50:50;;;;;;;791.70;718.57;;;9.90;99.90;;;;;;5039872;28;20844;-82
2022/12/22 09:53:22;;;;;;;803.13;731.00;;;10.00;99.90;;;;;;5039893;28;20479;-82
2022/12/22 09:55:51;;;;;;;799.07;725.67;;;9.90;99.90;;;;;;5038231;28;20826;-82
2022/12/22 09:58:24;;;;;;;814.20;740.87;;;9.80;99.90;;;;;;5039653;28;20540;-83
2022/12/22 10:00:57;;;;;;;802.70;728.80;;;9.80;99.90;;;;;;5039686;28;20479;-82
2022/12/22 10:03:45;;;;;;;799.97;725.23;;;10.00;99.90;;;;;;5037418;28;20472;-82
2022/12/22 10:06:18;;;;;;;802.00;727.23;;;10.10;99.90;;;;;;5038216;28;20459;-83
2022/12/22 10:08:45;;;;;;;801.13;727.73;;;10.10;99.90;;;;;;5039559;28;20456;-82
2022/12/22 10:11:15;;;;;;;803.50;729.33;;;10.10;99.90;;;;;;5038194;28;20452;-82
2022/12/22 10:13:44;;;;;;;793.20;720.53;;;10.00;99.90;;;;;;5041375;28;20468;-82
2022/12/22 10:16:20;;;;;;;785.17;713.70;;;10.00;99.90;;;;;;5042867;28;20452;-82
2022/12/22 10:19:21;;;;;;;794.87;722.77;;;9.90;99.90;;;;;;5039598;28;20460;-82
2022/12/22 10:21:48;;;;;;;799.07;726.57;;;9.90;99.90;;;;;;5040724;28;20848;-81
2022/12/22 10:24:39;;;;;;;802.43;732.40;;;10.00;99.90;;;;;;5041927;28;20849;-82
2022/12/22 10:27:06;;;;;;;804.50;733.90;;;10.00;99.90;;;;;;5030087;28;20460;-82
2022/12/22 10:29:34;;;;;;;794.70;726.40;;;10.10;99.90;;;;;;5023443;28;20875;-81
2022/12/22 10:32:03;;;;;;;804.20;736.73;;;10.00;99.90;;;;;;5023800;28;20453;-81
2022/12/22 10:34:31;;;;;;;796.50;730.27;;;9.90;99.90;;;;;;5024182;28;20472;-82
2022/12/22 10:37:01;;;;;;;790.97;726.10;;;9.90;99.90;;;;;;5022947;28;20449;-81
2022/12/22 10:39:30;;;;;;;792.37;728.43;;;9.90;99.90;;;;;;5021256;28;20476;-81
2022/12/22 10:42:01;;;;;;;788.63;724.83;;;9.90;99.90;;;;;;5022188;28;20836;-82
2022/12/22 10:44:30;;;;;;;750.77;689.77;;;10.00;99.90;;;;;;5022357;28;20476;-81
2022/12/22 10:47:00;;;;;;;770.90;710.70;;;10.00;99.90;;;;;;5023006;28;20453;-83
2022/12/22 10:49:34;;;;;;;731.93;678.20;;;10.10;99.90;;;;;;5023347;28;20540;-82
2022/12/22 10:52:14;;;;;;;722.00;669.63;;;10.20;99.90;;;;;;5022453;28;20447;-83
2022/12/22 10:55:15;;;;;;;694.57;647.70;;;10.30;99.90;;;;;;5022287;28;20464;-83
2022/12/22 10:57:44;;;;;;;487.65;463.55;;;10.30;99.90;;;;;;5019429;28;20505;-84
2022/12/22 11:00:24;;;;;;;523.63;497.57;;;10.50;99.90;;;;;;5022216;28;20268;-83
2022/12/22 11:02:52;;;;;;;538.67;511.80;;;10.40;99.90;;;;;;5021975;28;20476;-83
2022/12/22 11:05:19;;;;;;;548.40;521.57;;;10.40;99.90;;;;;;5022259;28;20515;-82
2022/12/22 11:07:50;;;;;;;565.30;538.30;;;10.40;99.90;;;;;;5022050;28;20460;-83
2022/12/22 11:10:25;;;;;;;558.53;531.63;;;10.40;99.90;;;;;;5022420;28;20473;-83
2022/12/22 11:13:11;;;;;;;552.43;525.23;;;10.30;99.90;;;;;;5022367;28;20472;-83
2022/12/22 11:15:45;;;;;;;568.20;539.77;;;10.20;99.90;;;;;;5021701;28;20849;-82
2022/12/22 11:18:41;;;;;;;587.13;558.03;;;10.20;99.90;;;;;;5021676;28;20465;-82
2022/12/22 11:21:15;;;;;;;578.17;548.83;;;10.10;99.90;;;;;;5021165;28;20492;-82
2022/12/22 11:23:53;;;;;;;556.63;529.17;;;10.10;99.90;;;;;;5020602;28;20842;-83
2022/12/22 11:26:29;;;;;;;462.83;441.40;;;10.20;99.90;;;;;;5021897;28;20441;-83
2022/12/22 11:29:15;;;;;;;459.27;438.50;;;10.00;99.90;;;;;;5019321;28;20457;-82
2022/12/22 11:32:00;;;;;;;468.93;447.50;;;10.10;99.90;;;;;;5020567;28;20453;-82
2022/12/22 11:34:42;;;;;;;462.97;442.57;;;10.10;99.90;;;;;;5019505;28;20505;-82
2022/12/22 11:37:48;;;;;;;467.63;446.90;;;10.10;99.90;;;;;;5019987;28;20550;-82
2022/12/22 11:40:28;;;;;;;500.17;476.47;;;10.00;99.90;;;;;;5019958;28;20867;-82
2022/12/22 11:43:10;;;;;;;511.97;487.27;;;10.10;99.90;;;;;;5019657;28;20477;-82
2022/12/22 11:45:47;;;;;;;445.80;425.40;;;10.20;99.90;;;;;;5020123;28;20476;-83
2022/12/22 11:48:51;;;;;;;494.30;472.13;;;10.30;99.90;;;;;;5020011;28;20453;-82
2022/12/22 11:51:26;;;;;;;476.97;455.23;;;10.40;99.90;;;;;;5018476;28;20456;-82
2022/12/22 11:54:27;;;;;;;286.60;274.17;;;10.60;99.90;;;;;;5019799;28;20477;-82
2022/12/22 11:57:02;;;;;;;110.90;104.73;;;11.20;99.90;;;;;;5019708;28;20452;-82
2022/12/22 11:59:40;;;;;;;56.43;52.03;;;11.80;99.90;;;;;;5019760;28;20456;-82
2022/12/22 12:02:28;;;;;;;68.50;63.37;;;12.00;99.90;;;;;;5020264;28;20460;-82
2022/12/22 12:05:14;;;;;;;36.73;33.33;;;12.20;99.90;;;;;;5020035;28;20488;-82
2022/12/22 12:07:45;;;;;;;25.67;14.43;;;12.60;99.90;;;;;;5019092;28;20459;-82
2022/12/22 12:10:18;;;;;;;17.67;11.37;;;12.50;99.90;;;;;;5020462;28;20476;-82
2022/12/22 12:12:54;;;;;;;19.03;13.20;;;12.70;99.90;;;;;;5019828;28;20478;-82
2022/12/22 12:15:31;;;;;;;17.63;10.93;;;12.40;99.90;;;;;;5019177;28;20455;-83
2022/12/22 12:18:25;;;;;;;20.87;10.83;;;12.00;99.90;;;;;;5019574;28;20457;-82
2022/12/22 12:21:07;;;;;;;18.53;10.60;;;11.50;99.90;;;;;;5019311;28;20456;-82
2022/12/22 12:23:54;;;;;;;30.93;11.63;;;11.00;99.90;;;;;;5019137;28;20477;-83
2022/12/22 12:26:25;;;;;;;19.37;11.97;;;10.80;99.90;;;;;;5019659;28;20993;-82
2022/12/22 12:29:04;;;;;;;18.10;9.67;;;10.50;99.90;;;;;;5019275;28;20449;-82
2022/12/22 12:31:35;;;;;;;21.03;11.73;;;10.50;99.90;;;;;;5018411;28;20479;-82
2022/12/22 12:34:04;;;;;;;17.00;10.33;;;10.40;99.90;;;;;;5019230;28;20483;-83
2022/12/22 12:36:39;;;;;;;16.77;9.07;;;10.40;99.90;;;;;;5018131;28;20480;-83
2022/12/22 12:39:15;;;;;;;23.60;10.13;;;10.20;99.90;;;;;;5018871;28;20459;-82
2022/12/22 12:41:50;;;;;;;15.33;9.87;;;10.10;99.90;;;;;;5018643;28;20503;-82
2022/12/22 12:47:29;;;;;;;17.50;12.60;;;9.90;99.90;;;;;;5012822;28;20459;-82
2022/12/22 12:50:03;;;;;;;17.80;15.17;;;9.90;99.90;;;;;;5016983;28;20485;-82
2022/12/22 12:53:13;;;;;;;20.03;16.87;;;9.80;99.90;;;;;;5016895;28;20457;-82
2022/12/22 12:55:54;;;;;;;27.87;25.97;;;9.80;99.90;;;;;;5016962;28;20836;-82
2022/12/22 12:58:48;;;;;;;40.57;37.27;;;9.60;99.90;;;;;;5017010;28;20459;-82
2022/12/22 13:01:54;;;;;;;54.97;51.87;;;9.60;99.90;;;;;;5016934;28;20448;-82
2022/12/22 13:05:12;;;;;;;76.37;72.37;;;9.50;99.90;;;;;;5017130;28;20523;-82
2022/12/22 13:11:55;;;;;;;;;;;;;;;;;;;;;
2022/12/22 13:14:55;;;;;;;103.70;98.60;;;9.80;99.90;;;;;;4871276;29;20483;-83
2022/12/22 13:17:41;;;;;;;82.47;78.30;;;9.70;99.90;;;;;;4853769;29;20607;-83
2022/12/22 13:23:14;;;;;;;90.70;85.80;;;9.80;99.90;;;;;;5001659;28;20469;-81
2022/12/22 13:25:48;;;;;;;110.20;105.00;;;9.60;99.90;;;;;;5016253;28;20460;-81
2022/12/22 13:28:17;;;;;;;133.00;127.40;;;9.50;99.90;;;;;;5016704;28;20464;-83
2022/12/22 13:30:47;;;;;;;156.13;149.77;;;9.70;99.90;;;;;;5016236;28;20847;-82
2022/12/22 13:33:17;;;;;;;168.77;161.17;;;9.70;99.90;;;;;;5016001;28;21024;-81
2022/12/22 13:35:45;;;;;;;156.27;149.37;;;9.80;99.90;;;;;;5016689;28;20457;-83
2022/12/22 13:38:29;;;;;;;143.63;137.23;;;9.90;99.90;;;;;;5016233;28;20459;-83
2022/12/22 13:40:57;;;;;;;119.40;113.50;;;10.10;99.90;;;;;;5016576;28;20448;-83
2022/12/22 13:43:24;;;;;;;73.80;69.70;;;10.10;99.90;;;;;;5016896;28;20481;-82
2022/12/22 13:45:54;;;;;;;61.90;58.30;;;10.20;99.90;;;;;;5016431;28;20997;-83
2022/12/22 13:48:27;;;;;;;50.87;47.67;;;10.30;99.90;;;;;;5016873;28;20453;-83
2022/12/22 13:50:57;;;;;;;51.23;48.03;;;10.10;99.90;;;;;;5016344;28;20580;-83
2022/12/22 13:53:32;;;;;;;48.67;45.27;;;10.20;99.90;;;;;;5015990;28;20495;-82
2022/12/22 13:56:00;;;;;;;54.50;51.17;;;10.10;99.90;;;;;;5016151;28;20920;-82
2022/12/22 13:58:30;;;;;;;47.40;44.40;;;10.10;99.90;;;;;;5016044;28;20453;-81
2022/12/22 14:01:02;;;;;;;40.97;38.40;;;10.20;99.90;;;;;;5016289;28;20449;-83
2022/12/22 14:03:28;;;;;;;44.67;41.17;;;10.20;99.90;;;;;;5016833;28;20489;-82
2022/12/22 14:05:55;;;;;;;42.63;39.53;;;10.30;99.90;;;;;;5016676;28;20468;-82
2022/12/22 14:08:54;;;;;;;25.50;22.73;;;10.40;99.90;;;;;;5016305;28;20537;-82
2022/12/22 14:11:22;;;;;;;25.63;19.70;;;10.40;99.90;;;;;;5014951;28;20492;-83
2022/12/22 14:13:49;;;;;;;18.93;13.67;;;10.40;99.90;;;;;;5016685;28;20477;-81
2022/12/22 14:16:16;;;;;;;13.40;10.40;;;10.20;99.90;;;;;;5016292;28;20453;-83
2022/12/22 14:18:42;;;;;;;11.80;9.73;;;10.10;99.90;;;;;;5016218;28;20476;-82
2022/12/22 14:21:33;;;;;;;11.50;9.50;;;9.90;99.90;;;;;;5016748;28;20449;-81
2022/12/22 14:24:00;;;;;;;10.20;9.20;;;9.80;99.90;;;;;;5013768;28;20488;-82
2022/12/22 14:26:32;;;;;;;11.33;9.83;;;9.60;99.90;;;;;;5016785;28;20469;-82
2022/12/22 14:29:21;;;;;;;11.27;9.40;;;9.50;99.90;;;;;;5018101;28;20865;-82
2022/12/22 14:31:53;;;;;;;10.23;9.33;;;9.40;99.90;;;;;;5018438;28;21018;-83
2022/12/22 14:34:27;;;;;;;18.50;17.20;;;9.50;99.90;;;;;;5017736;28;20552;-81
2022/12/22 14:37:10;;;;;;;23.57;21.97;;;9.40;99.90;;;;;;5017748;28;20465;-81
2022/12/22 14:39:37;;;;;;;33.87;32.17;;;9.30;99.90;;;;;;5016434;28;20460;-81
2022/12/22 14:42:36;;;;;;;46.90;44.67;;;9.30;99.90;;;;;;5016906;28;20460;-81
2022/12/22 14:45:14;;;;;;;51.77;49.47;;;9.30;99.90;;;;;;5013908;28;20457;-81
2022/12/22 14:47:41;;;;;;;54.23;51.80;;;9.30;99.90;;;;;;5017910;28;20460;-81
2022/12/22 14:50:17;;;;;;;67.23;64.33;;;9.20;99.90;;;;;;5016941;28;20453;-81
2022/12/22 14:52:45;;;;;;;70.80;67.73;;;9.30;99.90;;;;;;5017742;28;20511;-82
2022/12/22 14:55:25;;;;;;;77.10;73.80;;;9.20;99.90;;;;;;5017883;28;20449;-81
2022/12/22 14:57:55;;;;;;;67.73;64.73;;;9.20;99.90;;;;;;5017626;28;20832;-81
2022/12/22 15:00:34;;;;;;;73.33;70.13;;;9.20;99.90;;;;;;5021329;28;20449;-81
2022/12/22 15:03:05;;;;;;;91.93;88.13;;;9.20;99.90;;;;;;5022481;28;20472;-83
2022/12/22 15:05:34;;;;;;;111.90;107.43;;;9.20;99.90;;;;;;5021617;28;20825;-81
2022/12/22 15:08:02;;;;;;;136.80;131.30;;;9.10;99.90;;;;;;5021349;28;20540;-81
2022/12/22 15:10:36;;;;;;;149.27;143.27;;;9.00;99.90;;;;;;5020057;28;20456;-83
2022/12/22 15:13:07;;;;;;;182.47;175.27;;;9.00;99.90;;;;;;5019914;28;20508;-81
2022/12/22 15:15:35;;;;;;;211.53;202.33;;;8.90;99.90;;;;;;5021364;28;20937;-81
2022/12/22 15:18:02;;;;;;;239.83;230.07;;;8.90;99.90;;;;;;5020928;28;20989;-81
2022/12/22 15:23:15;;;;;;;250.67;239.77;;;8.90;99.90;;;;;;5003737;28;21105;-81
2022/12/22 15:25:42;;;;;;;254.97;243.17;;;8.90;99.90;;;;;;5019846;28;20476;-80
2022/12/22 15:28:09;;;;;;;285.03;271.37;;;8.90;99.90;;;;;;5019436;28;20513;-81
2022/12/22 15:30:52;;;;;;;328.23;312.83;;;8.90;99.90;;;;;;5019266;28;20456;-81
2022/12/22 15:33:19;;;;;;;435.40;415.07;;;9.00;99.90;;;;;;5019520;28;20479;-80
2022/12/22 15:35:46;;;;;;;558.00;530.10;;;9.00;99.90;;;;;;5019420;28;20460;-81
2022/12/22 15:38:21;;;;;;;579.03;549.47;;;8.90;99.90;;;;;;5019522;28;20460;-81
2022/12/22 15:40:49;;;;;;;533.70;508.40;;;8.90;99.90;;;;;;5019072;28;20503;-80
2022/12/22 15:43:20;;;;;;;457.73;437.07;;;8.90;99.90;;;;;;5018006;28;20485;-80
2022/12/22 15:45:58;;;;;;;429.23;411.17;;;9.10;99.90;;;;;;5018071;28;20453;-79
2022/12/22 15:48:28;;;;;;;535.08;506.90;;;9.00;99.90;;;;;;5016795;28;20463;-80
2022/12/22 15:50:55;;;;;;;512.53;488.17;;;9.00;99.90;;;;;;5018028;28;20594;-80
2022/12/22 15:53:22;;;;;;;493.87;471.30;;;9.10;99.90;;;;;;5017998;28;20847;-81
2022/12/22 15:55:51;;;;;;;467.90;447.10;;;9.10;99.90;;;;;;5017935;28;20469;-81
2022/12/22 15:58:21;;;;;;;455.90;436.50;;;9.00;99.90;;;;;;5018593;28;20459;-81
2022/12/22 16:00:49;;;;;;;420.00;402.60;;;9.10;99.90;;;;;;5017402;28;20457;-80
2022/12/22 16:03:16;;;;;;;419.77;402.27;;;9.20;99.90;;;;;;5018463;28;20845;-81
2022/12/22 16:05:45;;;;;;;472.03;450.63;;;9.20;99.90;;;;;;5018134;28;20457;-81
2022/12/22 16:08:16;;;;;;;508.47;483.97;;;9.10;99.90;;;;;;5017521;28;20456;-81
2022/12/22 16:10:43;;;;;;;555.40;525.70;;;9.00;99.90;;;;;;5017009;28;20465;-83
2022/12/22 16:13:13;;;;;;;534.70;508.03;;;9.00;99.90;;;;;;5017335;28;20730;-81
2022/12/22 16:15:40;;;;;;;514.23;489.20;;;9.10;99.90;;;;;;5015426;28;20476;-81
2022/12/22 16:18:11;;;;;;;527.83;500.97;;;9.20;99.90;;;;;;5016812;28;20448;-80
2022/12/22 16:20:41;;;;;;;543.83;514.87;;;9.10;99.90;;;;;;5015887;28;20449;-80
2022/12/22 16:23:14;;;;;;;567.90;536.90;;;9.10;99.90;;;;;;5016517;28;20473;-80
2022/12/22 16:25:44;;;;;;;588.13;555.17;;;9.00;99.90;;;;;;5016822;28;20461;-80
2022/12/22 16:28:16;;;;;;;602.47;566.80;;;9.00;99.90;;;;;;5016927;28;20453;-80
2022/12/22 16:30:43;;;;;;;621.67;582.70;;;8.90;99.90;;;;;;5016452;28;20460;-80
2022/12/22 16:33:12;;;;;;;647.63;607.57;;;8.90;99.90;;;;;;5017635;28;20477;-81
2022/12/22 16:35:39;;;;;;;656.63;614.20;;;8.90;99.90;;;;;;5019733;28;20490;-79
2022/12/22 16:38:07;;;;;;;669.73;624.73;;;8.90;99.90;;;;;;5018480;28;20967;-79
2022/12/22 16:40:40;;;;;;;672.93;625.47;;;8.90;99.90;;;;;;5017331;28;20955;-80
2022/12/22 16:43:15;;;;;;;679.80;630.30;;;8.90;99.90;;;;;;5016750;28;20473;-81
2022/12/22 16:45:44;;;;;;;676.20;626.70;;;8.90;99.90;;;;;;5015926;28;20458;-79
2022/12/22 16:48:18;;;;;;;675.23;626.50;;;8.90;99.90;;;;;;5016226;28;20460;-80
2022/12/22 16:53:46;;;;;;;651.93;605.80;;;9.00;99.90;;;;;;5016706;28;20473;-80
2022/12/22 17:02:34;;;;;;;624.73;584.03;;;9.00;99.90;;;;;;4955393;29;20567;-82